Terminal Aerodrome Forecast
Issued by NWS Quad Cities IA IL

Home | Current Version | Previous Version | Text Only | Print | Product List | Glossary On
Versions: 1 2 3 4 5 6 7 8 9 10 11 12 13 14 15 16 17 18 19 20 21 22 23 24 25 26 27 28
073
FTUS43 KDVN 011723
TAFMLI
TAF
KMLI 011723Z 0118/0218 34007KT 5SM BR SCT008 OVC012
      TEMPO 0118/0120 3SM -DZ BR OVC008
     FM012000 35006KT P6SM VCSH BKN015 OVC030
     FM020300 36004KT 5SM BR SCT007 OVC012
     FM021000 34004KT 3SM BR OVC005
     FM021500 02006KT 5SM BR OVC010=

USA.gov is the U.S. government's official web portal to all federal, state and local government web resources and services.